Time;durP1;ratioP1;P1;durP2;ratioP2;P2;SDS_P1;SDS_P2;PMS_P1;PMS_P2;Temp;Humidity;BMP_temperature;BMP_pressure;BME280_temperature;BME280_humidity;BME280_pressure;Samples;Min_cycle;Max_cycle;Signal;HPM_P1;HPM_P2
2022/12/03 00:02:15;;;;;;;8.52;6.40;;;;;;;0.67;100.00;95810.59;5061341;28;24508;-72
2022/12/03 00:04:41;;;;;;;7.15;6.43;;;;;;;0.72;100.00;95807.03;5060819;28;24450;-72
2022/12/03 00:07:08;;;;;;;7.90;6.82;;;;;;;0.71;100.00;95802.84;5067081;28;24431;-72
2022/12/03 00:09:34;;;;;;;8.98;6.32;;;;;;;0.61;100.00;95809.00;5054637;28;24438;-72
2022/12/03 00:12:01;;;;;;;8.40;6.88;;;;;;;0.68;100.00;95810.53;5056696;28;24976;-72
2022/12/03 00:14:29;;;;;;;12.70;6.70;;;;;;;0.67;100.00;95808.03;5060904;28;24431;-73
2022/12/03 00:16:55;;;;;;;11.77;7.50;;;;;;;0.80;100.00;95800.94;5058019;28;24439;-72
2022/12/03 00:19:22;;;;;;;7.72;6.60;;;;;;;0.76;100.00;95805.25;5055652;28;24808;-72
2022/12/03 00:21:48;;;;;;;12.30;6.63;;;;;;;0.68;100.00;95810.53;5060240;28;24434;-72
2022/12/03 00:24:15;;;;;;;9.05;6.78;;;;;;;0.64;100.00;95811.50;5068917;28;24457;-72
2022/12/03 00:26:41;;;;;;;11.82;6.38;;;;;;;0.57;100.00;95807.41;5068129;28;24446;-72
2022/12/03 00:29:08;;;;;;;12.07;7.13;;;;;;;0.62;100.00;95799.66;5058321;28;24435;-72
2022/12/03 00:31:35;;;;;;;11.73;6.22;;;;;;;0.72;100.00;95804.50;5066050;28;24442;-72
2022/12/03 00:34:02;;;;;;;14.98;6.32;;;;;;;0.72;100.00;95794.31;5068823;28;24470;-72
2022/12/03 00:36:28;;;;;;;8.68;6.32;;;;;;;0.72;100.00;95799.41;5067349;28;24437;-72
2022/12/03 00:38:55;;;;;;;16.25;6.53;;;;;;;0.86;100.00;95798.25;5061631;28;24437;-72
2022/12/03 00:41:21;;;;;;;8.93;5.57;;;;;;;0.87;100.00;95792.25;5061886;28;24450;-72
2022/12/03 00:43:48;;;;;;;10.32;5.70;;;;;;;0.90;100.00;95792.19;5066071;28;24453;-73
2022/12/03 00:46:14;;;;;;;9.20;6.40;;;;;;;0.85;100.00;95791.44;5059982;28;25079;-72
2022/12/03 00:48:42;;;;;;;7.13;6.20;;;;;;;0.85;100.00;95786.34;5062693;28;24441;-73
2022/12/03 00:51:09;;;;;;;12.23;6.82;;;;;;;0.76;100.00;95792.53;5062732;28;24802;-72
2022/12/03 00:53:35;;;;;;;17.65;7.13;;;;;;;0.67;100.00;95796.13;5064418;28;24425;-72
2022/12/03 00:56:02;;;;;;;7.07;6.28;;;;;;;0.88;100.00;95793.94;5062337;28;24462;-72
2022/12/03 00:58:28;;;;;;;14.03;7.07;;;;;;;0.84;100.00;95797.44;5061952;28;24453;-73
2022/12/03 01:00:55;;;;;;;9.82;6.90;;;;;;;0.91;100.00;95797.25;5063246;28;25001;-72
2022/12/03 01:03:21;;;;;;;8.35;6.90;;;;;;;0.96;100.00;95797.13;5064347;28;24457;-73
2022/12/03 01:05:49;;;;;;;13.27;7.80;;;;;;;1.07;100.00;95804.50;5057499;28;24449;-73
2022/12/03 01:08:15;;;;;;;12.63;7.55;;;;;;;0.94;100.00;95802.28;5060807;28;24980;-73
2022/12/03 01:10:42;;;;;;;10.70;8.00;;;;;;;1.05;100.00;95812.22;5065574;28;24524;-73
2022/12/03 01:13:08;;;;;;;12.75;8.48;;;;;;;1.16;100.00;95806.84;5062350;28;24817;-72
2022/12/03 01:15:35;;;;;;;9.93;8.88;;;;;;;1.36;100.00;95806.31;5059583;28;25027;-73
2022/12/03 01:18:01;;;;;;;11.07;9.90;;;;;;;1.31;100.00;95814.09;5059416;28;24435;-72
2022/12/03 01:20:28;;;;;;;15.15;11.80;;;;;;;1.24;100.00;95812.59;5062891;28;24441;-73
2022/12/03 01:22:56;;;;;;;20.52;11.60;;;;;;;1.05;100.00;95808.81;5060361;28;24895;-72
2022/12/03 01:25:22;;;;;;;15.68;11.35;;;;;;;1.03;100.00;95813.94;5055503;28;24445;-72
2022/12/03 01:27:49;;;;;;;16.05;12.20;;;;;;;0.86;100.00;95811.81;5058266;28;24431;-72
2022/12/03 01:30:15;;;;;;;12.95;11.50;;;;;;;1.04;100.00;95813.09;5066585;28;25011;-73
2022/12/03 01:32:41;;;;;;;14.02;10.98;;;;;;;0.93;100.00;95810.81;5060877;28;24446;-72
2022/12/03 01:35:08;;;;;;;13.67;11.60;;;;;;;0.92;100.00;95810.81;5054002;28;24439;-72
2022/12/03 01:37:35;;;;;;;17.02;12.75;;;;;;;0.95;100.00;95814.13;5064490;28;24437;-72
2022/12/03 01:40:03;;;;;;;13.75;10.93;;;;;;;0.93;100.00;95810.81;5065682;28;24903;-72
2022/12/03 01:42:32;;;;;;;13.73;11.52;;;;;;;0.93;100.00;95815.91;5053581;28;24463;-72
2022/12/03 01:45:00;;;;;;;12.43;11.13;;;;;;;0.99;100.00;95820.00;5060160;28;24462;-72
2022/12/03 01:47:30;;;;;;;18.38;12.65;;;;;;;1.03;100.00;95813.13;5063671;28;24434;-72
2022/12/03 01:50:01;;;;;;;17.35;12.68;;;;;;;0.99;100.00;95811.50;5069911;28;24435;-72
2022/12/03 01:52:31;;;;;;;13.98;11.73;;;;;;;1.00;100.00;95811.47;5057721;28;25026;-72
2022/12/03 01:55:00;;;;;;;12.23;10.60;;;;;;;1.00;100.00;95813.19;5067583;28;24801;-72
2022/12/03 01:57:32;;;;;;;15.07;11.95;;;;;;;1.02;100.00;95809.72;5063822;28;24505;-72
2022/12/03 02:00:00;;;;;;;13.05;11.20;;;;;;;1.03;100.00;95810.56;5055584;28;24798;-72
2022/12/03 02:02:29;;;;;;;17.42;12.68;;;;;;;1.06;100.00;95820.69;5068184;28;24462;-72
2022/12/03 02:04:55;;;;;;;16.30;12.73;;;;;;;0.99;100.00;95814.06;5069814;28;24995;-73
2022/12/03 02:07:25;;;;;;;17.63;13.95;;;;;;;1.09;100.00;95816.34;5064366;28;24446;-72
2022/12/03 02:09:52;;;;;;;17.15;14.00;;;;;;;1.11;100.00;95817.16;5063908;28;24441;-72
2022/12/03 02:12:25;;;;;;;17.23;13.68;;;;;;;1.26;100.00;95818.50;5067677;28;24435;-71
2022/12/03 02:14:53;;;;;;;22.17;17.20;;;;;;;1.33;100.00;95825.09;5070124;28;24442;-72
2022/12/03 02:17:20;;;;;;;21.20;16.83;;;;;;;1.29;100.00;95825.22;5065510;28;24437;-73
2022/12/03 02:19:47;;;;;;;25.63;19.77;;;;;;;1.64;100.00;95820.03;5063388;28;24450;-72
2022/12/03 02:22:26;;;;;;;23.42;19.65;;;;;;;1.64;100.00;95814.09;5067159;28;24466;-73
2022/12/03 02:24:58;;;;;;;21.88;18.10;;;;;;;1.54;100.00;95813.50;5069425;28;24816;-73
2022/12/03 02:27:28;;;;;;;21.67;19.10;;;;;;;1.33;100.00;95811.50;5059568;28;24446;-73
2022/12/03 02:29:55;;;;;;;20.15;17.77;;;;;;;1.11;100.00;95809.53;5061116;28;24437;-73
2022/12/03 02:32:22;;;;;;;22.75;16.25;;;;;;;1.03;100.00;95806.28;5065624;28;24442;-73
2022/12/03 02:34:49;;;;;;;18.02;16.00;;;;;;;0.97;100.00;95811.56;5070857;28;24846;-73
2022/12/03 02:37:20;;;;;;;17.52;15.40;;;;;;;0.93;100.00;95804.88;5069432;28;24445;-72
2022/12/03 02:39:50;;;;;;;24.80;16.00;;;;;;;0.93;100.00;95807.41;5062951;28;24438;-73
2022/12/03 02:42:37;;;;;;;22.80;16.48;;;;;;;0.90;100.00;95804.94;5061804;28;24445;-73
2022/12/03 02:45:09;;;;;;;20.15;16.63;;;;;;;0.88;100.00;95812.59;5060922;28;24512;-73
2022/12/03 02:47:40;;;;;;;23.58;16.58;;;;;;;0.85;100.00;95812.69;5067008;28;24833;-72
2022/12/03 02:50:09;;;;;;;22.23;17.52;;;;;;;0.96;100.00;95808.19;5065415;28;24439;-72
2022/12/03 02:52:36;;;;;;;22.10;16.98;;;;;;;0.90;100.00;95815.13;5060232;28;24432;-72
2022/12/03 02:55:05;;;;;;;18.98;16.98;;;;;;;0.94;100.00;95814.19;5065529;28;24458;-72
2022/12/03 02:57:32;;;;;;;19.10;17.10;;;;;;;0.94;100.00;95821.84;5068484;28;24439;-73
2022/12/03 02:59:59;;;;;;;22.23;18.83;;;;;;;0.90;100.00;95818.53;5065482;28;25046;-72
2022/12/03 03:02:28;;;;;;;21.77;18.00;;;;;;;0.88;100.00;95822.81;5060599;28;24450;-72
2022/12/03 03:04:55;;;;;;;22.80;17.80;;;;;;;0.84;100.00;95828.03;5065880;28;24548;-72
2022/12/03 03:07:22;;;;;;;19.30;16.58;;;;;;;0.85;100.00;95816.94;5064285;28;24443;-72
2022/12/03 03:09:48;;;;;;;19.33;16.55;;;;;;;0.83;100.00;95813.59;5069648;28;24521;-71
2022/12/03 03:12:15;;;;;;;19.65;16.40;;;;;;;0.88;100.00;95811.78;5062183;28;24454;-72
2022/12/03 03:14:41;;;;;;;19.25;16.17;;;;;;;0.82;100.00;95811.94;5065018;28;24972;-71
2022/12/03 03:17:08;;;;;;;18.98;15.52;;;;;;;0.85;100.00;95807.56;5058283;28;24804;-71
2022/12/03 03:19:36;;;;;;;17.17;15.38;;;;;;;0.88;100.00;95804.13;5065251;28;24649;-71
2022/12/03 03:22:03;;;;;;;20.40;16.60;;;;;;;0.78;100.00;95803.53;5058828;28;24797;-72
2022/12/03 03:24:29;;;;;;;19.67;15.80;;;;;;;0.87;100.00;95805.84;5066353;28;24446;-73
2022/12/03 03:26:56;;;;;;;18.80;15.68;;;;;;;0.92;100.00;95803.16;5066143;28;24446;-73
2022/12/03 03:29:22;;;;;;;19.00;15.18;;;;;;;0.94;100.00;95809.09;5064095;28;24431;-72
2022/12/03 03:31:49;;;;;;;18.77;16.67;;;;;;;0.91;100.00;95812.53;5060491;28;24446;-73
2022/12/03 03:34:16;;;;;;;20.02;16.75;;;;;;;0.86;100.00;95805.91;5065955;28;24439;-73
2022/12/03 03:36:45;;;;;;;18.83;15.35;;;;;;;0.83;100.00;95809.34;5068235;28;25011;-73
2022/12/03 03:39:12;;;;;;;22.10;16.98;;;;;;;0.83;100.00;95809.34;5061391;28;24445;-73
2022/12/03 03:41:40;;;;;;;18.33;16.45;;;;;;;0.85;100.00;95804.19;5059798;28;24442;-73
2022/12/03 03:44:08;;;;;;;18.42;16.40;;;;;;;0.84;100.00;95805.91;5060500;28;24451;-72
2022/12/03 03:46:35;;;;;;;22.52;16.33;;;;;;;0.92;100.00;95806.56;5067333;28;24435;-73
2022/12/03 03:49:03;;;;;;;18.67;15.90;;;;;;;0.86;100.00;95805.91;5065629;28;24813;-72
2022/12/03 03:51:30;;;;;;;20.83;16.05;;;;;;;0.88;100.00;95811.78;5060857;28;25031;-73
2022/12/03 03:53:58;;;;;;;22.00;17.30;;;;;;;0.85;100.00;95806.75;5060622;28;24438;-72
2022/12/03 03:56:25;;;;;;;18.70;16.17;;;;;;;0.84;100.00;95805.06;5068260;28;25015;-72
2022/12/03 03:58:52;;;;;;;22.60;16.20;;;;;;;0.82;100.00;95810.22;5060535;28;24431;-72
2022/12/03 04:01:18;;;;;;;18.80;15.77;;;;;;;0.90;100.00;95802.38;5057117;28;24442;-72
2022/12/03 04:03:45;;;;;;;20.67;17.17;;;;;;;0.87;100.00;95802.47;5058915;28;24461;-73
2022/12/03 04:06:12;;;;;;;22.55;16.48;;;;;;;0.94;100.00;95801.44;5068616;28;24435;-73
2022/12/03 04:08:38;;;;;;;23.33;17.10;;;;;;;1.03;100.00;95803.75;5054913;28;24436;-72
2022/12/03 04:13:50;;;;;;;19.77;16.80;;;;;;;0.93;100.00;95803.16;5063819;28;24446;-73
2022/12/03 04:16:16;;;;;;;20.48;17.13;;;;;;;0.94;100.00;95797.16;5068369;28;24984;-73
2022/12/03 04:18:43;;;;;;;21.15;16.90;;;;;;;0.93;100.00;95795.50;5064636;28;24529;-72
2022/12/03 04:23:54;;;;;;;21.08;17.50;;;;;;;0.93;100.00;95797.22;5060782;28;24592;-73
2022/12/03 04:29:06;;;;;;;20.92;16.67;;;;;;;0.95;100.00;95786.09;5066878;28;24433;-73
2022/12/03 04:37:00;;;;;;;19.10;16.67;;;;;;;0.93;100.00;95787.03;5066722;28;24448;-72
2022/12/03 04:39:27;;;;;;;22.73;18.33;;;;;;;0.94;100.00;95784.41;5066437;28;24837;-72
2022/12/03 04:41:55;;;;;;;19.63;17.48;;;;;;;0.99;100.00;95791.13;5063182;28;24446;-72
2022/12/03 04:44:34;;;;;;;25.50;18.90;;;;;;;0.99;100.00;95780.91;5060543;28;24459;-72
2022/12/03 04:47:03;;;;;;;21.77;19.20;;;;;;;1.04;100.00;95781.63;5066706;28;24435;-72
2022/12/03 04:49:30;;;;;;;24.67;20.63;;;;;;;1.06;100.00;95778.16;5063253;28;24431;-71
2022/12/03 04:51:57;;;;;;;29.52;20.75;;;;;;;1.08;100.00;95778.97;5057586;28;24479;-71
2022/12/03 04:54:23;;;;;;;27.25;20.95;;;;;;;1.15;100.00;95775.41;5065721;28;24434;-72
2022/12/03 04:56:50;;;;;;;27.30;21.60;;;;;;;1.01;100.00;95777.47;5057563;28;24789;-71
2022/12/03 04:59:18;;;;;;;28.23;19.42;;;;;;;1.01;100.00;95769.81;5065173;28;24439;-72
2022/12/03 05:01:45;;;;;;;29.80;21.60;;;;;;;0.93;100.00;95780.19;5058953;28;24443;-73
2022/12/03 05:04:12;;;;;;;24.55;19.80;;;;;;;0.99;100.00;95779.19;5063652;28;24462;-73
2022/12/03 05:06:38;;;;;;;29.25;21.42;;;;;;;1.22;100.00;95776.06;5062318;28;24446;-73
2022/12/03 05:09:05;;;;;;;30.63;22.27;;;;;;;1.51;100.00;95774.44;5057460;28;24435;-72
2022/12/03 05:11:31;;;;;;;30.85;24.45;;;;;;;1.61;100.00;95769.06;5060902;28;24801;-72
2022/12/03 05:13:58;;;;;;;30.48;23.67;;;;;;;1.65;100.00;95772.34;5062375;28;24453;-72
2022/12/03 05:16:26;;;;;;;34.42;24.13;;;;;;;1.48;100.00;95766.88;5062959;28;24438;-73
2022/12/03 05:18:52;;;;;;;31.88;23.55;;;;;;;1.38;100.00;95762.03;5056481;28;24441;-72
2022/12/03 05:21:19;;;;;;;31.63;22.45;;;;;;;1.29;100.00;95769.91;5061900;28;25011;-73
2022/12/03 05:23:45;;;;;;;29.48;23.40;;;;;;;1.41;100.00;95771.31;5066990;28;24446;-73
2022/12/03 05:26:12;;;;;;;28.58;22.08;;;;;;;1.30;100.00;95768.19;5068599;28;24439;-73
2022/12/03 05:28:38;;;;;;;26.67;21.58;;;;;;;1.16;100.00;95769.41;5067023;28;24437;-72
2022/12/03 05:31:05;;;;;;;28.98;22.00;;;;;;;1.21;100.00;95774.38;5071471;28;25103;-73
2022/12/03 05:33:33;;;;;;;26.25;21.45;;;;;;;1.21;100.00;95770.13;5068512;28;24458;-73
2022/12/03 05:36:00;;;;;;;30.58;22.02;;;;;;;1.16;100.00;95776.22;5066441;28;24446;-73
2022/12/03 05:38:26;;;;;;;25.58;21.13;;;;;;;1.25;100.00;95772.59;5071840;28;24435;-72
2022/12/03 05:40:53;;;;;;;29.07;21.37;;;;;;;1.07;100.00;95767.09;5066056;28;24431;-72
2022/12/03 05:43:18;;;;;;;31.45;22.17;;;;;;;1.01;100.00;95768.97;5063058;28;24451;-72
2022/12/03 05:45:45;;;;;;;29.02;22.00;;;;;;;1.02;100.00;95760.44;5070157;28;24442;-71
2022/12/03 05:48:13;;;;;;;24.52;21.10;;;;;;;0.88;100.00;95766.72;5070923;28;25019;-72
2022/12/03 05:50:43;;;;;;;24.02;19.73;;;;;;;0.95;100.00;95768.25;5066673;28;24435;-71
2022/12/03 05:53:10;;;;;;;26.17;20.50;;;;;;;1.12;100.00;95764.44;5069527;28;25056;-72
2022/12/03 05:55:37;;;;;;;26.13;20.45;;;;;;;1.14;100.00;95771.16;5071350;28;24435;-72
2022/12/03 05:58:04;;;;;;;25.38;19.38;;;;;;;1.16;100.00;95763.47;5065170;28;24996;-72
2022/12/03 06:00:32;;;;;;;26.55;20.90;;;;;;;1.17;100.00;95770.25;5063172;28;24443;-72
2022/12/03 06:02:59;;;;;;;26.17;19.50;;;;;;;1.08;100.00;95756.03;5066841;28;24435;-71
2022/12/03 06:05:26;;;;;;;25.30;20.38;;;;;;;1.22;100.00;95760.75;5067071;28;24454;-72
2022/12/03 06:07:54;;;;;;;27.63;20.48;;;;;;;1.01;100.00;95764.72;5067875;28;24442;-72
2022/12/03 06:10:22;;;;;;;27.67;20.80;;;;;;;1.05;100.00;95763.75;5062610;28;24441;-73
2022/12/03 06:12:49;;;;;;;28.75;20.15;;;;;;;1.05;100.00;95770.56;5069662;28;24445;-72
2022/12/03 06:15:16;;;;;;;30.55;22.85;;;;;;;0.94;100.00;95773.38;5068381;28;25283;-72
2022/12/03 06:17:42;;;;;;;29.15;20.65;;;;;;;0.86;100.00;95770.19;5067926;28;24442;-72
2022/12/03 06:20:13;;;;;;;27.35;21.38;;;;;;;0.94;100.00;95775.94;5061744;28;24441;-72
2022/12/03 06:22:40;;;;;;;26.05;21.05;;;;;;;1.00;100.00;95777.47;5066870;28;24855;-72
2022/12/03 06:25:08;;;;;;;23.37;19.83;;;;;;;0.94;100.00;95781.88;5057854;28;24455;-72
2022/12/03 06:27:35;;;;;;;26.60;20.15;;;;;;;0.89;100.00;95775.19;5068711;28;24984;-72
2022/12/03 06:30:01;;;;;;;26.15;18.85;;;;;;;0.92;100.00;95778.50;5063024;28;24442;-72
2022/12/03 06:32:28;;;;;;;25.50;20.48;;;;;;;0.96;100.00;95784.38;5061912;28;25006;-73
2022/12/03 06:34:54;;;;;;;26.20;20.05;;;;;;;0.97;100.00;95780.97;5061064;28;24787;-72
2022/12/03 06:37:21;;;;;;;22.75;19.73;;;;;;;1.07;100.00;95787.47;5070327;28;24442;-72
2022/12/03 06:39:47;;;;;;;23.43;20.60;;;;;;;1.04;100.00;95794.38;5066440;28;24435;-73
2022/12/03 06:42:15;;;;;;;24.40;18.65;;;;;;;1.05;100.00;95794.34;5070480;28;24982;-73
2022/12/03 06:44:42;;;;;;;26.80;19.38;;;;;;;0.97;100.00;95783.50;5062256;28;24976;-73
2022/12/03 06:47:08;;;;;;;22.42;18.30;;;;;;;0.97;100.00;95786.06;5059439;28;24436;-73
2022/12/03 06:49:35;;;;;;;22.60;19.27;;;;;;;1.13;100.00;95789.06;5060254;28;24443;-72
2022/12/03 06:52:01;;;;;;;25.15;16.67;;;;;;;1.32;100.00;95789.41;5062652;28;24454;-71
2022/12/03 06:54:28;;;;;;;25.10;17.90;;;;;;;1.21;100.00;95787.97;5065125;28;25003;-74
2022/12/03 06:56:54;;;;;;;23.77;17.90;;;;;;;1.18;100.00;95788.06;5067691;28;24838;-73
2022/12/03 06:59:22;;;;;;;25.13;17.88;;;;;;;1.24;100.00;95779.41;5070561;28;24426;-73
2022/12/03 07:01:49;;;;;;;23.50;17.45;;;;;;;1.16;100.00;95776.22;5059635;28;24450;-73
2022/12/03 07:04:15;;;;;;;23.48;18.88;;;;;;;1.12;100.00;95777.19;5064410;28;24453;-71
2022/12/03 07:06:42;;;;;;;21.33;18.13;;;;;;;1.08;100.00;95780.69;5064592;28;24446;-72
2022/12/03 07:09:09;;;;;;;25.75;17.38;;;;;;;1.08;100.00;95780.69;5065966;28;25022;-73
2022/12/03 07:11:39;;;;;;;21.13;16.75;;;;;;;1.11;100.00;95773.81;5069342;28;24446;-73
2022/12/03 07:14:07;;;;;;;23.05;18.45;;;;;;;1.09;100.00;95782.38;5063599;28;24480;-72
2022/12/03 07:16:35;;;;;;;22.42;17.90;;;;;;;1.05;100.00;95776.50;5067142;28;24437;-73
2022/12/03 07:19:02;;;;;;;21.67;17.58;;;;;;;1.12;100.00;95780.56;5068255;28;24804;-73
2022/12/03 07:21:28;;;;;;;21.23;17.63;;;;;;;1.12;100.00;95783.13;5065329;28;24452;-72
2022/12/03 07:23:55;;;;;;;23.52;19.35;;;;;;;1.11;100.00;95786.56;5067092;28;24821;-73
2022/12/03 07:26:21;;;;;;;30.25;21.65;;;;;;;1.00;100.00;95791.06;5065760;28;24801;-73
2022/12/03 07:28:48;;;;;;;26.00;21.23;;;;;;;1.08;100.00;95788.34;5065531;28;24530;-72
2022/12/03 07:31:15;;;;;;;28.08;21.67;;;;;;;1.10;100.00;95791.69;5061597;28;24439;-73
2022/12/03 07:33:43;;;;;;;27.92;20.88;;;;;;;1.06;100.00;95792.63;5065225;28;24435;-73
2022/12/03 07:36:09;;;;;;;25.42;20.65;;;;;;;1.08;100.00;95798.56;5062170;28;24442;-73
2022/12/03 07:38:36;;;;;;;30.63;20.65;;;;;;;1.05;100.00;95789.25;5067792;28;24435;-71
2022/12/03 07:41:03;;;;;;;28.50;20.55;;;;;;;1.06;100.00;95787.53;5064429;28;24439;-72
2022/12/03 07:43:30;;;;;;;31.52;22.50;;;;;;;1.14;100.00;95793.28;5063693;28;24442;-72
2022/12/03 07:45:56;;;;;;;23.55;20.55;;;;;;;1.13;100.00;95792.44;5066042;28;24453;-72
2022/12/03 07:48:23;;;;;;;23.60;19.33;;;;;;;1.26;100.00;95787.00;5067303;28;24481;-72
2022/12/03 07:50:51;;;;;;;23.40;20.58;;;;;;;1.26;100.00;95784.47;5061099;28;24457;-72
2022/12/03 07:53:17;;;;;;;24.77;19.70;;;;;;;1.27;100.00;95779.34;5058694;28;24786;-72
2022/12/03 07:55:44;;;;;;;25.42;20.60;;;;;;;1.35;100.00;95776.59;5065360;28;24442;-72
2022/12/03 07:58:10;;;;;;;23.05;18.88;;;;;;;1.24;100.00;95774.31;5067365;28;24435;-72
2022/12/03 08:00:37;;;;;;;24.38;19.02;;;;;;;1.15;100.00;95772.84;5057149;28;24439;-71
2022/12/03 08:03:03;;;;;;;25.17;19.42;;;;;;;1.13;100.00;95784.78;5067756;28;24450;-72
2022/12/03 08:05:30;;;;;;;25.85;20.15;;;;;;;1.21;100.00;95787.13;5068821;28;24450;-72
2022/12/03 08:07:58;;;;;;;25.65;19.80;;;;;;;1.31;100.00;95768.16;5065042;28;24445;-72
2022/12/03 08:10:25;;;;;;;24.13;19.42;;;;;;;1.29;100.00;95771.63;5062525;28;24439;-72
2022/12/03 08:12:52;;;;;;;24.15;19.33;;;;;;;1.18;100.00;95777.00;5059305;28;24458;-72
2022/12/03 08:15:22;;;;;;;26.13;20.80;;;;;;;1.23;100.00;95776.91;5068881;28;24797;-72
2022/12/03 08:17:54;;;;;;;23.23;19.00;;;;;;;1.18;100.00;95775.28;5065541;28;24525;-72
2022/12/03 08:20:23;;;;;;;24.30;19.17;;;;;;;1.20;100.00;95767.63;5064906;28;24897;-72
2022/12/03 08:22:51;;;;;;;28.55;19.65;;;;;;;1.17;100.00;95768.53;5064885;28;24432;-72
2022/12/03 08:25:23;;;;;;;25.20;18.73;;;;;;;1.28;100.00;95768.25;5068563;28;24491;-72
2022/12/03 08:27:51;;;;;;;23.63;18.77;;;;;;;1.28;100.00;95760.59;5068314;28;24681;-73
2022/12/03 08:30:19;;;;;;;22.58;18.85;;;;;;;1.23;100.00;95765.00;5068563;28;24446;-72
2022/12/03 08:32:45;;;;;;;22.92;18.73;;;;;;;1.20;100.00;95757.41;5065728;28;25559;-73
2022/12/03 08:35:13;;;;;;;21.73;18.40;;;;;;;1.16;100.00;95759.22;5059966;28;24503;-73
2022/12/03 08:37:40;;;;;;;21.20;17.93;;;;;;;1.18;100.00;95760.00;5061485;28;24483;-73
2022/12/03 08:40:22;;;;;;;24.25;19.35;;;;;;;1.16;100.00;95759.22;5063562;28;26238;-73
2022/12/03 08:42:49;;;;;;;25.40;18.65;;;;;;;1.14;100.00;95760.13;5066082;28;24457;-73
2022/12/03 08:45:31;;;;;;;21.83;18.50;;;;;;;1.13;100.00;95771.19;5065570;28;25387;-72
2022/12/03 08:48:00;;;;;;;22.97;17.97;;;;;;;1.01;100.00;95766.44;5059277;28;24468;-73
2022/12/03 08:50:29;;;;;;;28.83;18.48;;;;;;;1.00;100.00;95767.28;5059974;28;24435;-72
2022/12/03 08:53:08;;;;;;;23.48;18.55;;;;;;;0.95;100.00;95762.31;5062293;28;24802;-73
2022/12/03 08:55:38;;;;;;;25.27;18.27;;;;;;;0.97;100.00;95765.66;5056901;28;24437;-72
2022/12/03 08:58:19;;;;;;;21.38;18.23;;;;;;;0.98;100.00;95763.94;5065766;28;24438;-72
2022/12/03 09:00:45;;;;;;;22.58;18.40;;;;;;;1.01;100.00;95759.59;5060854;28;24968;-72
2022/12/03 09:03:18;;;;;;;22.17;17.73;;;;;;;1.01;100.00;95758.78;5067708;28;24443;-72
2022/12/03 09:05:45;;;;;;;22.70;17.58;;;;;;;1.05;100.00;95762.91;5072255;28;24458;-72
2022/12/03 09:08:12;;;;;;;25.90;17.65;;;;;;;1.13;100.00;95761.00;5067416;28;25042;-72
2022/12/03 09:10:40;;;;;;;25.33;18.75;;;;;;;1.20;100.00;95765.91;5063304;28;24427;-72
2022/12/03 09:13:06;;;;;;;25.77;19.20;;;;;;;1.26;100.00;95766.59;5063807;28;24439;-72
2022/12/03 09:15:33;;;;;;;22.13;17.00;;;;;;;1.23;100.00;95766.72;5066886;28;24505;-72
2022/12/03 09:17:59;;;;;;;21.40;17.75;;;;;;;1.29;100.00;95771.63;5070764;28;24438;-72
2022/12/03 09:20:26;;;;;;;25.75;19.15;;;;;;;1.32;100.00;95769.84;5072695;28;24439;-72
2022/12/03 09:22:52;;;;;;;23.92;20.25;;;;;;;1.75;100.00;95775.50;5066638;28;24427;-72
2022/12/03 09:25:19;;;;;;;27.52;21.17;;;;;;;1.82;100.00;95777.00;5061078;28;25013;-72
2022/12/03 09:27:47;;;;;;;29.95;20.33;;;;;;;1.90;100.00;95785.28;5060761;28;24727;-72
2022/12/03 09:30:14;;;;;;;27.45;21.02;;;;;;;1.98;100.00;95783.34;5064906;28;24442;-72
2022/12/03 09:32:40;;;;;;;24.40;21.00;;;;;;;2.01;100.00;95782.41;5069398;28;24445;-72
2022/12/03 09:35:08;;;;;;;25.80;20.77;;;;;;;1.88;100.00;95781.91;5070068;28;24426;-72
2022/12/03 09:37:34;;;;;;;30.48;22.48;;;;;;;1.96;100.00;95777.41;5065748;28;24438;-72
2022/12/03 09:40:01;;;;;;;23.45;19.60;;;;;;;1.94;100.00;95774.09;5067304;28;24431;-72
2022/12/03 09:42:28;;;;;;;24.02;19.95;;;;;;;1.92;100.00;95758.78;5060216;28;24443;-72
2022/12/03 09:44:56;;;;;;;28.30;21.45;;;;;;;2.00;100.00;95750.91;5059466;28;24470;-72
2022/12/03 09:47:24;;;;;;;25.85;20.92;;;;;;;1.94;100.00;95741.72;5061330;28;24454;-72
2022/12/03 09:49:51;;;;;;;29.55;22.05;;;;;;;1.90;100.00;95737.59;5060851;28;24439;-74
2022/12/03 09:52:23;;;;;;;28.88;22.10;;;;;;;2.06;100.00;95735.41;5060507;28;24529;-73
2022/12/03 09:54:50;;;;;;;31.42;23.05;;;;;;;1.93;100.00;95737.50;5063940;28;24426;-73
2022/12/03 09:57:17;;;;;;;27.17;21.83;;;;;;;2.13;100.00;95741.16;5070923;28;24445;-72
2022/12/03 09:59:45;;;;;;;30.30;23.42;;;;;;;2.01;100.00;95731.34;5060327;28;24442;-73
2022/12/03 10:02:20;;;;;;;28.25;24.00;;;;;;;2.04;100.00;95731.22;5065923;28;24449;-73
2022/12/03 10:04:47;;;;;;;36.17;22.83;;;;;;;2.02;100.00;95731.28;5069448;28;24509;-72
2022/12/03 10:07:14;;;;;;;31.23;23.05;;;;;;;1.97;100.00;95738.25;5070324;28;24426;-73
2022/12/03 10:09:41;;;;;;;32.63;23.55;;;;;;;2.03;100.00;95739.75;5068075;28;24445;-74
2022/12/03 10:12:11;;;;;;;34.08;24.15;;;;;;;2.07;100.00;95741.34;5065351;28;24988;-72
2022/12/03 10:14:38;;;;;;;30.20;22.80;;;;;;;2.11;100.00;95746.34;5069789;28;24450;-72
2022/12/03 10:17:04;;;;;;;30.33;22.75;;;;;;;2.07;100.00;95747.28;5065824;28;24446;-71
2022/12/03 10:19:36;;;;;;;32.00;22.43;;;;;;;1.98;100.00;95751.84;5063528;28;24439;-72
2022/12/03 10:22:03;;;;;;;25.55;21.10;;;;;;;1.87;100.00;95747.06;5067308;28;24450;-73
2022/12/03 10:24:31;;;;;;;35.25;21.30;;;;;;;1.93;100.00;95749.44;5065113;28;24439;-73
2022/12/03 10:27:00;;;;;;;27.23;20.08;;;;;;;1.90;100.00;95742.69;5069857;28;24441;-73
2022/12/03 10:29:28;;;;;;;27.00;20.02;;;;;;;1.90;100.00;95744.41;5063623;28;24446;-73
2022/12/03 10:31:57;;;;;;;27.20;22.20;;;;;;;1.96;100.00;95741.66;5064399;28;24431;-73
2022/12/03 10:34:25;;;;;;;28.45;21.40;;;;;;;1.90;100.00;95739.31;5067497;28;24438;-72
2022/12/03 10:37:12;;;;;;;29.75;21.15;;;;;;;1.88;100.00;95733.38;5069428;28;24435;-72
2022/12/03 10:40:00;;;;;;;29.33;22.85;;;;;;;1.83;100.00;95738.63;5065168;28;24431;-72
2022/12/03 10:42:28;;;;;;;28.27;20.38;;;;;;;1.87;100.00;95730.00;5067332;28;24453;-73
2022/12/03 10:45:12;;;;;;;31.58;21.35;;;;;;;1.81;100.00;95726.78;5060234;28;24461;-73
2022/12/03 10:47:39;;;;;;;27.35;21.10;;;;;;;1.86;100.00;95727.50;5066609;28;24442;-73
2022/12/03 10:50:14;;;;;;;30.00;23.57;;;;;;;1.82;100.00;95720.81;5065550;28;24530;-73
2022/12/03 10:52:43;;;;;;;29.63;21.20;;;;;;;1.69;100.00;95725.44;5063440;28;25015;-73
2022/12/03 10:55:11;;;;;;;34.72;22.15;;;;;;;1.74;100.00;95721.03;5067527;28;24431;-73
2022/12/03 10:57:38;;;;;;;29.52;23.42;;;;;;;1.74;100.00;95712.53;5061342;28;25075;-71
2022/12/03 11:00:06;;;;;;;30.20;22.75;;;;;;;1.75;100.00;95707.41;5063840;28;24437;-71
2022/12/03 11:02:33;;;;;;;27.52;22.60;;;;;;;1.76;100.00;95700.56;5067595;28;24446;-72
2022/12/03 11:04:59;;;;;;;32.10;23.85;;;;;;;1.69;100.00;95703.28;5062490;28;24452;-71
2022/12/03 11:07:26;;;;;;;35.90;21.92;;;;;;;1.69;100.00;95698.19;5063655;28;24438;-71
2022/12/03 11:09:57;;;;;;;35.03;22.20;;;;;;;1.69;100.00;95694.78;5069372;28;24652;-71
2022/12/03 11:12:26;;;;;;;31.00;21.77;;;;;;;1.62;100.00;95683.91;5065573;28;24431;-71
2022/12/03 11:15:05;;;;;;;38.78;23.35;;;;;;;1.79;100.00;95686.00;5066820;28;24431;-71
2022/12/03 11:17:46;;;;;;;30.35;21.45;;;;;;;1.61;100.00;95683.97;5068009;28;24987;-72
2022/12/03 11:21:00;;;;;;;33.72;23.88;;;;;;;1.72;100.00;95688.78;5064477;28;24446;-71
2022/12/03 11:24:18;;;;;;;30.90;22.23;;;;;;;1.83;100.00;95686.75;5059516;28;24435;-71
2022/12/03 11:27:16;;;;;;;32.17;23.05;;;;;;;1.77;100.00;95685.19;5063407;28;24541;-72
2022/12/03 11:30:00;;;;;;;34.17;26.83;;;;;;;1.62;100.00;95681.38;5068073;28;24488;-71
2022/12/03 11:33:03;;;;;;;35.70;26.10;;;;;;;1.66;100.00;95682.13;5066527;28;24439;-71
2022/12/03 11:35:36;;;;;;;39.25;27.92;;;;;;;1.62;100.00;95685.63;5066522;28;24441;-72
2022/12/03 11:38:36;;;;;;;36.75;26.73;;;;;;;1.58;100.00;95686.63;5063849;28;25207;-71
2022/12/03 11:41:10;;;;;;;34.55;26.13;;;;;;;1.49;100.00;95681.78;5066546;28;24426;-72